DTTF

Gafsa Ksar International Airport

Gafsa, Tunisia
METAR DTTF 190700Z 35003KT 8000 FEW030 29/12 Q1012 NOSIG
Observed Flight Rules
Jul-19 @ 07:00 UTC (46 minutes ago) Marginal Visual Flight Rules
Wind Visibility Clouds
350° at 3 knots 7,998 meters
  • Few at 3,000' AGL
Temperatures Readings
Current 29°C / 84°F
Dewpoint 12°C / 54°F
Humidity 35%
Altimeter 29.88" Hg
Pressure 1012 hPa
Elevation 314
METAR DTTF 190700Z 35003KT 8000 FEW030 29/12 Q1012 NOSIG
Observed Flight Rules
Jul-19 @ 07:00 UTC
(46 minutes ago)
MVFR
Wind Visibility
350° at 3 knots 7,998 meters
Clouds
  • Few at 3,000' AGL
Temperature Dewpoint
29°C / 84°F 12°C / 54°F
Humidity Altimeter Pressure
35% 29.88" Hg 1012 hPa